createdAt,value
2018-12-26T00:01:41.871Z,97.20
2018-12-26T00:05:49.521Z,96.20
2018-12-26T00:09:56.920Z,96.10
2018-12-26T00:14:03.417Z,96.60
2018-12-26T00:18:10.211Z,96.50
2018-12-26T00:22:16.967Z,96.50
2018-12-26T00:26:24.769Z,96.60
2018-12-26T00:30:32.631Z,96.70
2018-12-26T00:34:39.151Z,96.90
2018-12-26T00:38:49.235Z,96.40
2018-12-26T00:42:58.148Z,96.70
2018-12-26T00:47:04.671Z,96.60
2018-12-26T00:51:11.453Z,96.30
2018-12-26T00:55:20.242Z,96.30
2018-12-26T00:59:27.784Z,96.50
2018-12-26T01:03:34.370Z,96.20
2018-12-26T01:07:43.786Z,96.20
2018-12-26T01:11:50.808Z,96.00
2018-12-26T01:15:58.611Z,95.60
2018-12-26T01:20:05.466Z,95.40
2018-12-26T01:24:11.959Z,95.50
2018-12-26T01:28:18.339Z,95.50
2018-12-26T01:32:25.546Z,95.70
2018-12-26T01:36:32.885Z,95.30
2018-12-26T01:40:40.637Z,95.30
2018-12-26T01:44:47.156Z,95.40
2018-12-26T01:48:54.101Z,95.10
2018-12-26T01:53:00.675Z,95.30
2018-12-26T01:57:07.145Z,95.20
2018-12-26T02:01:15.781Z,95.90
2018-12-26T02:05:27.473Z,95.70
2018-12-26T02:09:39.383Z,95.60
2018-12-26T02:13:47.752Z,95.40
2018-12-26T02:17:54.653Z,95.50
2018-12-26T02:22:01.397Z,95.30
2018-12-26T02:26:08.017Z,95.20
2018-12-26T02:30:14.409Z,95.60
2018-12-26T02:34:20.939Z,95.40
2018-12-26T02:38:28.291Z,95.30
2018-12-26T02:42:34.669Z,95.20
2018-12-26T02:46:41.056Z,95.50
2018-12-26T02:50:47.516Z,95.80
2018-12-26T02:54:54.574Z,95.20
2018-12-26T02:59:01.159Z,95.30
2018-12-26T03:03:08.395Z,95.10
2018-12-26T03:07:19.618Z,95.10
2018-12-26T03:11:26.543Z,95.30
2018-12-26T03:15:33.581Z,95.50
2018-12-26T03:19:40.031Z,95.40
2018-12-26T03:23:47.534Z,95.50
2018-12-26T03:27:58.022Z,95.70
2018-12-26T03:32:04.568Z,95.90
2018-12-26T03:36:10.995Z,95.90
2018-12-26T03:40:17.811Z,95.70
2018-12-26T03:44:25.306Z,95.70
2018-12-26T03:48:32.570Z,95.80
2018-12-26T03:52:39.164Z,95.90
2018-12-26T03:56:45.748Z,96.00
2018-12-26T04:00:52.966Z,95.70
2018-12-26T04:04:59.489Z,95.80
2018-12-26T04:09:09.803Z,95.80
2018-12-26T04:13:18.129Z,95.60
2018-12-26T04:17:25.414Z,95.90
2018-12-26T04:21:32.107Z,96.10
2018-12-26T04:25:38.584Z,96.40
2018-12-26T04:29:45.106Z,96.70
2018-12-26T04:33:52.728Z,96.70
2018-12-26T04:37:59.356Z,96.50
2018-12-26T04:42:05.976Z,96.60
2018-12-26T04:46:12.469Z,96.80
2018-12-26T04:50:19.814Z,96.10
2018-12-26T04:54:26.257Z,96.00
2018-12-26T04:58:32.896Z,96.20
2018-12-26T05:02:39.377Z,96.60
2018-12-26T05:06:46.776Z,96.10
2018-12-26T05:10:53.452Z,96.20
2018-12-26T05:15:00.020Z,96.10
2018-12-26T05:19:06.446Z,95.80
2018-12-26T05:23:13.158Z,95.50
2018-12-26T05:27:19.942Z,95.60
2018-12-26T05:31:26.315Z,95.70
2018-12-26T05:35:32.932Z,96.10
2018-12-26T05:39:41.198Z,96.20
2018-12-26T05:43:47.640Z,95.90
2018-12-26T05:47:54.119Z,96.50
2018-12-26T05:52:00.629Z,95.90
2018-12-26T05:56:08.054Z,96.00
2018-12-26T06:00:14.553Z,96.20
2018-12-26T06:04:21.048Z,96.20
2018-12-26T06:08:27.589Z,96.30
2018-12-26T06:12:35.575Z,96.10
2018-12-26T06:16:42.056Z,96.20
2018-12-26T06:20:49.393Z,96.10
2018-12-26T06:24:59.040Z,96.00
2018-12-26T06:29:07.186Z,96.20
2018-12-26T06:33:16.038Z,95.80
2018-12-26T06:37:22.471Z,96.10
2018-12-26T06:41:29.252Z,96.20
2018-12-26T06:45:37.169Z,96.10
2018-12-26T06:49:45.386Z,96.00
2018-12-26T06:53:51.895Z,96.00
2018-12-26T06:58:00.214Z,96.20
2018-12-26T07:02:07.570Z,96.20
2018-12-26T07:06:13.972Z,96.60
2018-12-26T07:10:20.404Z,96.50
2018-12-26T07:14:26.929Z,96.50
2018-12-26T07:18:34.329Z,96.60
2018-12-26T07:22:41.002Z,96.60
2018-12-26T07:26:47.479Z,96.30
2018-12-26T07:30:58.742Z,96.20
2018-12-26T07:35:05.798Z,96.20
2018-12-26T07:39:13.446Z,95.90
2018-12-26T07:43:20.343Z,96.20
2018-12-26T07:47:26.850Z,95.90
2018-12-26T07:51:34.189Z,95.80
2018-12-26T07:55:40.806Z,96.00
2018-12-26T07:59:47.595Z,96.00
2018-12-26T08:03:55.839Z,96.00
2018-12-26T08:08:02.832Z,95.90
2018-12-26T08:12:09.354Z,95.90
2018-12-26T08:16:16.577Z,95.30
2018-12-26T08:20:23.025Z,95.50
2018-12-26T08:24:31.651Z,95.10
2018-12-26T08:28:37.582Z,95.20
2018-12-26T08:32:43.952Z,95.20
2018-12-26T08:36:50.356Z,95.00
2018-12-26T08:40:59.300Z,95.00
2018-12-26T08:45:06.780Z,94.60
2018-12-26T08:49:13.895Z,94.80
2018-12-26T08:53:21.280Z,94.80
2018-12-26T08:57:28.768Z,94.90
2018-12-26T09:01:37.924Z,94.90
2018-12-26T09:05:44.391Z,94.90
2018-12-26T09:09:50.838Z,95.00
2018-12-26T09:13:58.997Z,94.20
2018-12-26T09:18:05.356Z,94.20
2018-12-26T09:22:11.730Z,94.10
2018-12-26T09:26:20.631Z,94.10
2018-12-26T09:30:49.200Z,94.30
2018-12-26T09:34:55.772Z,94.20
2018-12-26T09:39:04.582Z,94.50
2018-12-26T09:43:12.333Z,94.10
2018-12-26T09:47:22.069Z,94.10
2018-12-26T09:51:28.630Z,94.40
2018-12-26T09:55:35.492Z,94.10
2018-12-26T10:00:03.193Z,94.20
2018-12-26T10:04:10.854Z,94.30
2018-12-26T10:08:17.235Z,94.40
2018-12-26T10:12:23.684Z,94.30
2018-12-26T10:16:30.274Z,94.40
2018-12-26T10:20:46.659Z,94.40
2018-12-26T10:24:55.667Z,94.40
2018-12-26T10:29:02.971Z,94.00
2018-12-26T10:33:09.520Z,94.00
2018-12-26T10:37:16.471Z,93.80
2018-12-26T10:41:23.041Z,93.80
2018-12-26T10:45:30.069Z,93.60
2018-12-26T10:49:37.108Z,94.00
2018-12-26T10:53:45.740Z,93.00
2018-12-26T10:57:52.558Z,92.90
2018-12-26T11:02:02.342Z,92.90
2018-12-26T11:06:10.949Z,92.70
2018-12-26T11:10:40.722Z,92.50
2018-12-26T11:14:47.350Z,92.60
2018-12-26T11:18:55.801Z,92.30
2018-12-26T11:23:02.665Z,92.60
2018-12-26T11:27:14.029Z,92.30
2018-12-26T11:31:21.145Z,92.10
2018-12-26T11:35:30.612Z,92.00
2018-12-26T11:39:39.476Z,92.30
2018-12-26T11:43:46.299Z,91.80
2018-12-26T11:47:53.376Z,92.10
2018-12-26T11:52:00.066Z,91.10
2018-12-26T11:56:07.011Z,91.40
2018-12-26T12:00:15.987Z,91.10
2018-12-26T12:04:22.648Z,90.80
2018-12-26T12:08:29.001Z,91.20
2018-12-26T12:12:35.410Z,90.70
2018-12-26T12:16:42.820Z,90.90
2018-12-26T12:20:49.349Z,90.90
2018-12-26T12:24:55.847Z,91.10
2018-12-26T12:29:02.550Z,91.00
2018-12-26T12:33:15.091Z,91.10
2018-12-26T12:37:22.218Z,90.70
2018-12-26T12:41:31.465Z,90.80
2018-12-26T12:45:40.944Z,90.40
2018-12-26T12:49:47.650Z,90.70
2018-12-26T12:53:54.158Z,90.40
2018-12-26T12:58:00.658Z,90.30
2018-12-26T13:02:07.295Z,90.40
2018-12-26T13:06:13.774Z,90.40
2018-12-26T13:10:20.287Z,90.20
2018-12-26T13:14:27.143Z,90.10
2018-12-26T13:18:34.300Z,90.20
2018-12-26T13:22:41.365Z,89.90
2018-12-26T13:26:48.107Z,90.10
2018-12-26T13:30:54.607Z,89.90
2018-12-26T13:35:02.245Z,89.50
2018-12-26T13:39:09.398Z,90.00
2018-12-26T13:43:16.208Z,89.50
2018-12-26T13:47:22.568Z,89.50
2018-12-26T13:51:29.355Z,89.50
2018-12-26T13:55:38.753Z,89.40
2018-12-26T13:59:45.321Z,88.80
2018-12-26T14:03:51.992Z,89.40
2018-12-26T14:07:58.773Z,89.10
2018-12-26T14:12:06.174Z,89.00
2018-12-26T14:16:13.041Z,89.50
2018-12-26T14:20:19.606Z,88.80
2018-12-26T14:24:26.411Z,89.30
2018-12-26T14:28:33.655Z,89.50
2018-12-26T14:32:40.308Z,90.00
2018-12-26T14:36:47.820Z,89.20
2018-12-26T14:40:54.245Z,88.70
2018-12-26T14:45:01.593Z,89.40
2018-12-26T14:49:08.220Z,88.80
2018-12-26T14:53:14.706Z,88.70
2018-12-26T14:57:21.285Z,88.70
2018-12-26T15:01:31.245Z,89.00
2018-12-26T15:05:37.860Z,88.70
2018-12-26T15:09:44.350Z,89.00
2018-12-26T15:13:50.840Z,88.90
2018-12-26T15:17:58.426Z,89.20
2018-12-26T15:22:06.372Z,89.00
2018-12-26T15:26:12.726Z,89.30
2018-12-26T15:30:28.420Z,89.20
2018-12-26T15:34:29.991Z,88.60
2018-12-26T15:38:37.701Z,88.60
2018-12-26T15:42:44.143Z,88.60
2018-12-26T15:46:50.656Z,88.60
2018-12-26T15:50:58.132Z,88.50
2018-12-26T15:55:04.815Z,88.40
2018-12-26T15:59:16.476Z,88.70
2018-12-26T16:03:23.567Z,88.00
2018-12-26T16:07:31.459Z,88.40
2018-12-26T16:11:38.341Z,88.20
2018-12-26T16:15:46.430Z,88.30
2018-12-26T16:19:53.754Z,88.00
2018-12-26T16:24:02.799Z,88.20
2018-12-26T16:28:09.297Z,88.30
2018-12-26T16:32:15.814Z,88.40
2018-12-26T16:36:22.472Z,88.10
2018-12-26T16:40:30.978Z,88.60
2018-12-26T16:44:38.339Z,88.10
2018-12-26T16:48:44.755Z,88.00
2018-12-26T16:52:51.442Z,87.90
2018-12-26T16:57:01.212Z,88.00
2018-12-26T17:01:07.783Z,87.90
2018-12-26T17:05:14.234Z,88.00
2018-12-26T17:09:20.919Z,88.40
2018-12-26T17:13:28.037Z,87.90
2018-12-26T17:17:34.595Z,88.00
2018-12-26T17:21:41.230Z,87.90
2018-12-26T17:25:47.637Z,88.10
2018-12-26T17:29:55.901Z,88.10
2018-12-26T17:34:02.407Z,88.20
2018-12-26T17:38:08.842Z,88.10
2018-12-26T17:42:16.788Z,88.10
2018-12-26T17:46:24.535Z,88.10
2018-12-26T17:50:47.395Z,88.20
2018-12-26T17:55:15.348Z,87.80
2018-12-26T17:59:36.803Z,87.80
2018-12-26T18:03:43.427Z,88.00
2018-12-26T18:07:50.392Z,87.90
2018-12-26T18:12:11.247Z,87.70
2018-12-26T18:16:05.936Z,87.90
2018-12-26T18:20:13.291Z,87.60
2018-12-26T18:24:19.901Z,88.00
2018-12-26T18:28:27.760Z,87.70
2018-12-26T18:32:34.248Z,87.50
2018-12-26T18:36:43.097Z,87.80
2018-12-26T18:40:49.672Z,88.00
2018-12-26T18:44:57.713Z,88.00
2018-12-26T18:49:04.340Z,88.60
2018-12-26T18:53:12.186Z,87.90
2018-12-26T18:57:18.691Z,88.20
2018-12-26T19:01:30.557Z,87.90
2018-12-26T19:05:33.498Z,87.70
2018-12-26T19:09:45.037Z,87.80
2018-12-26T19:13:51.470Z,87.80
2018-12-26T19:17:59.543Z,88.00
2018-12-26T19:22:06.081Z,88.20
2018-12-26T19:26:16.253Z,88.20
2018-12-26T19:30:22.663Z,88.40
2018-12-26T19:34:31.659Z,88.30
2018-12-26T19:38:38.150Z,88.90
2018-12-26T19:42:45.172Z,88.20
2018-12-26T19:46:51.994Z,88.30
2018-12-26T19:50:58.510Z,88.50
2018-12-26T19:55:07.589Z,88.40
2018-12-26T19:59:16.440Z,88.80
2018-12-26T20:03:23.117Z,89.00
2018-12-26T20:07:29.519Z,89.10
2018-12-26T20:11:36.062Z,89.10
2018-12-26T20:15:42.483Z,89.00
2018-12-26T20:19:51.155Z,89.30
2018-12-26T20:23:57.611Z,89.20
2018-12-26T20:28:04.144Z,89.10
2018-12-26T20:32:11.776Z,88.80
2018-12-26T20:36:18.247Z,89.30
2018-12-26T20:40:31.179Z,89.60
2018-12-26T20:44:38.965Z,89.50
2018-12-26T20:48:50.067Z,89.60
2018-12-26T20:52:56.985Z,89.50
2018-12-26T20:57:05.812Z,89.70
2018-12-26T21:01:16.437Z,89.90
2018-12-26T21:05:23.544Z,89.50
2018-12-26T21:09:30.405Z,89.70
2018-12-26T21:13:41.473Z,90.40
2018-12-26T21:17:50.587Z,89.60
2018-12-26T21:21:57.166Z,89.70
2018-12-26T21:26:03.768Z,90.10
2018-12-26T21:30:16.258Z,90.30
2018-12-26T21:34:23.702Z,90.30
2018-12-26T21:38:31.723Z,90.70
2018-12-26T21:42:40.329Z,90.80
2018-12-26T21:46:48.043Z,90.40
2018-12-26T21:50:58.087Z,90.70
2018-12-26T21:55:06.182Z,90.80
2018-12-26T21:59:12.770Z,90.90
2018-12-26T22:03:20.435Z,90.60
2018-12-26T22:07:27.761Z,90.80
2018-12-26T22:11:35.540Z,91.20
2018-12-26T22:15:43.765Z,91.20
2018-12-26T22:19:51.556Z,91.30
2018-12-26T22:23:58.921Z,91.50
2018-12-26T22:28:07.068Z,91.70
2018-12-26T22:32:14.936Z,91.80
2018-12-26T22:36:21.976Z,91.50
2018-12-26T22:40:31.325Z,91.90
2018-12-26T22:44:39.744Z,91.90
2018-12-26T22:48:46.995Z,92.00
2018-12-26T22:52:54.523Z,91.80
2018-12-26T22:57:01.217Z,91.70
2018-12-26T23:01:09.407Z,91.80
2018-12-26T23:05:16.167Z,92.00
2018-12-26T23:09:24.228Z,92.40
2018-12-26T23:13:30.875Z,92.50
2018-12-26T23:17:42.035Z,92.30
2018-12-26T23:21:49.758Z,92.30
2018-12-26T23:25:56.218Z,92.30
2018-12-26T23:30:04.794Z,91.90
2018-12-26T23:34:13.513Z,91.80
2018-12-26T23:38:22.896Z,92.00
2018-12-26T23:42:29.391Z,92.30
2018-12-26T23:46:36.442Z,93.40
2018-12-26T23:50:43.402Z,92.30
2018-12-26T23:54:51.243Z,92.10
2018-12-26T23:58:58.403Z,92.10
